<?xml version="1.0" encoding="UTF-8" standalone="no" ?>
<gpx xmlns="http://www.topografix.com/GPX/1/1" xmlns:xsi="http://www.w3.org/2001/XMLSchema-instance" xsi:schemaLocation="http://www.topografix.com/GPX/1/1 http://www.topografix.com/GPX/1/1/gpx.xsd" version="1.1" creator="VisuGPX - https://www.visugpx.com">
  <metadata>
    <name>MOULIN DES THEUX - LA GUILLERMIE 03250.</name>
    <desc><![CDATA[CIRCUIT NON BALISE A FAIRE AVEC LA CARTE EN MAIN OU GPX AVEC APPLI RANDO.]]></desc>
  </metadata>
  <trk>
    <name><![CDATA[balade sur la guillermie - Moulin de Theux-3023342]]></name>
    <trkseg>
      <trkpt lat="45.98354" lon="3.63942">
        <ele>727</ele>
        <time>2024-06-02T06:12:06Z</time>
      </trkpt>
      <trkpt lat="45.9833" lon="3.63932">
        <ele>728</ele>
        <time>2024-06-02T06:12:39Z</time>
      </trkpt>
      <trkpt lat="45.983" lon="3.63924">
        <ele>729</ele>
        <time>2024-06-02T06:13:20Z</time>
      </trkpt>
      <trkpt lat="45.98281" lon="3.6392">
        <ele>729</ele>
        <time>2024-06-02T06:13:46Z</time>
      </trkpt>
      <trkpt lat="45.98242" lon="3.63917">
        <ele>730</ele>
        <time>2024-06-02T06:14:38Z</time>
      </trkpt>
      <trkpt lat="45.98193" lon="3.63904">
        <ele>731</ele>
        <time>2024-06-02T06:15:44Z</time>
      </trkpt>
      <trkpt lat="45.98157" lon="3.63922">
        <ele>732</ele>
        <time>2024-06-02T06:16:35Z</time>
      </trkpt>
      <trkpt lat="45.98082" lon="3.6395">
        <ele>735</ele>
        <time>2024-06-02T06:18:19Z</time>
      </trkpt>
      <trkpt lat="45.98066" lon="3.63973">
        <ele>737</ele>
        <time>2024-06-02T06:18:49Z</time>
      </trkpt>
      <trkpt lat="45.98063" lon="3.63941">
        <ele>738</ele>
        <time>2024-06-02T06:19:19Z</time>
      </trkpt>
      <trkpt lat="45.98055" lon="3.63932">
        <ele>739</ele>
        <time>2024-06-02T06:19:32Z</time>
      </trkpt>
      <trkpt lat="45.98038" lon="3.6392">
        <ele>742</ele>
        <time>2024-06-02T06:19:57Z</time>
      </trkpt>
      <trkpt lat="45.97981" lon="3.63901">
        <ele>748</ele>
        <time>2024-06-02T06:21:16Z</time>
      </trkpt>
      <trkpt lat="45.97963" lon="3.63892">
        <ele>750</ele>
        <time>2024-06-02T06:21:41Z</time>
      </trkpt>
      <trkpt lat="45.9791" lon="3.63856">
        <ele>758</ele>
        <time>2024-06-02T06:22:59Z</time>
      </trkpt>
      <trkpt lat="45.97862" lon="3.63845">
        <ele>767</ele>
        <time>2024-06-02T06:24:04Z</time>
      </trkpt>
      <trkpt lat="45.97823" lon="3.63846">
        <ele>773</ele>
        <time>2024-06-02T06:24:56Z</time>
      </trkpt>
      <trkpt lat="45.97814" lon="3.63842">
        <ele>773</ele>
        <time>2024-06-02T06:25:09Z</time>
      </trkpt>
      <trkpt lat="45.97768" lon="3.63818">
        <ele>775</ele>
        <time>2024-06-02T06:26:14Z</time>
      </trkpt>
      <trkpt lat="45.9768" lon="3.63754">
        <ele>784</ele>
        <time>2024-06-02T06:28:26Z</time>
      </trkpt>
      <trkpt lat="45.97661" lon="3.63745">
        <ele>784</ele>
        <time>2024-06-02T06:28:52Z</time>
      </trkpt>
      <trkpt lat="45.97642" lon="3.63746">
        <ele>784</ele>
        <time>2024-06-02T06:29:18Z</time>
      </trkpt>
      <trkpt lat="45.97633" lon="3.63752">
        <ele>783</ele>
        <time>2024-06-02T06:29:31Z</time>
      </trkpt>
      <trkpt lat="45.97609" lon="3.63776">
        <ele>783</ele>
        <time>2024-06-02T06:30:10Z</time>
      </trkpt>
      <trkpt lat="45.97588" lon="3.63781">
        <ele>784</ele>
        <time>2024-06-02T06:30:38Z</time>
      </trkpt>
      <trkpt lat="45.97579" lon="3.6378">
        <ele>784</ele>
        <time>2024-06-02T06:30:50Z</time>
      </trkpt>
      <trkpt lat="45.97553" lon="3.63762">
        <ele>786</ele>
        <time>2024-06-02T06:31:29Z</time>
      </trkpt>
      <trkpt lat="45.97479" lon="3.6373">
        <ele>789</ele>
        <time>2024-06-02T06:33:12Z</time>
      </trkpt>
      <trkpt lat="45.97472" lon="3.63721">
        <ele>789</ele>
        <time>2024-06-02T06:33:24Z</time>
      </trkpt>
      <trkpt lat="45.9745" lon="3.63662">
        <ele>784</ele>
        <time>2024-06-02T06:34:27Z</time>
      </trkpt>
      <trkpt lat="45.97429" lon="3.63617">
        <ele>779</ele>
        <time>2024-06-02T06:35:17Z</time>
      </trkpt>
      <trkpt lat="45.9739" lon="3.63553">
        <ele>773</ele>
        <time>2024-06-02T06:36:36Z</time>
      </trkpt>
      <trkpt lat="45.97375" lon="3.63537">
        <ele>772</ele>
        <time>2024-06-02T06:37:01Z</time>
      </trkpt>
      <trkpt lat="45.9732" lon="3.63508">
        <ele>774</ele>
        <time>2024-06-02T06:38:19Z</time>
      </trkpt>
      <trkpt lat="45.97302" lon="3.635">
        <ele>776</ele>
        <time>2024-06-02T06:38:44Z</time>
      </trkpt>
      <trkpt lat="45.97273" lon="3.63492">
        <ele>780</ele>
        <time>2024-06-02T06:39:23Z</time>
      </trkpt>
      <trkpt lat="45.97252" lon="3.63464">
        <ele>779</ele>
        <time>2024-06-02T06:40:02Z</time>
      </trkpt>
      <trkpt lat="45.97248" lon="3.63451">
        <ele>778</ele>
        <time>2024-06-02T06:40:15Z</time>
      </trkpt>
      <trkpt lat="45.97239" lon="3.63444">
        <ele>778</ele>
        <time>2024-06-02T06:40:28Z</time>
      </trkpt>
      <trkpt lat="45.97212" lon="3.63405">
        <ele>776</ele>
        <time>2024-06-02T06:41:19Z</time>
      </trkpt>
      <trkpt lat="45.97186" lon="3.6338">
        <ele>774</ele>
        <time>2024-06-02T06:42:01Z</time>
      </trkpt>
      <trkpt lat="45.97152" lon="3.63354">
        <ele>772</ele>
        <time>2024-06-02T06:42:53Z</time>
      </trkpt>
      <trkpt lat="45.97145" lon="3.63345">
        <ele>771</ele>
        <time>2024-06-02T06:43:05Z</time>
      </trkpt>
      <trkpt lat="45.9714" lon="3.63334">
        <ele>769</ele>
        <time>2024-06-02T06:43:17Z</time>
      </trkpt>
      <trkpt lat="45.97135" lon="3.63307">
        <ele>765</ele>
        <time>2024-06-02T06:43:43Z</time>
      </trkpt>
      <trkpt lat="45.97111" lon="3.63286">
        <ele>765</ele>
        <time>2024-06-02T06:44:21Z</time>
      </trkpt>
      <trkpt lat="45.97077" lon="3.63237">
        <ele>759</ele>
        <time>2024-06-02T06:45:25Z</time>
      </trkpt>
      <trkpt lat="45.97051" lon="3.63177">
        <ele>746</ele>
        <time>2024-06-02T06:46:31Z</time>
      </trkpt>
      <trkpt lat="45.97038" lon="3.63157">
        <ele>743</ele>
        <time>2024-06-02T06:46:56Z</time>
      </trkpt>
      <trkpt lat="45.9704" lon="3.63143">
        <ele>741</ele>
        <time>2024-06-02T06:47:09Z</time>
      </trkpt>
      <trkpt lat="45.97028" lon="3.63128">
        <ele>740</ele>
        <time>2024-06-02T06:47:30Z</time>
      </trkpt>
      <trkpt lat="45.97023" lon="3.63103">
        <ele>738</ele>
        <time>2024-06-02T06:47:55Z</time>
      </trkpt>
      <trkpt lat="45.97028" lon="3.63087">
        <ele>737</ele>
        <time>2024-06-02T06:48:11Z</time>
      </trkpt>
      <trkpt lat="45.97037" lon="3.63074">
        <ele>736</ele>
        <time>2024-06-02T06:48:28Z</time>
      </trkpt>
      <trkpt lat="45.97046" lon="3.6305">
        <ele>736</ele>
        <time>2024-06-02T06:48:53Z</time>
      </trkpt>
      <trkpt lat="45.9707" lon="3.63023">
        <ele>735</ele>
        <time>2024-06-02T06:49:34Z</time>
      </trkpt>
      <trkpt lat="45.97075" lon="3.63011">
        <ele>734</ele>
        <time>2024-06-02T06:49:47Z</time>
      </trkpt>
      <trkpt lat="45.9709" lon="3.62989">
        <ele>732</ele>
        <time>2024-06-02T06:50:15Z</time>
      </trkpt>
      <trkpt lat="45.971" lon="3.62986">
        <ele>730</ele>
        <time>2024-06-02T06:50:29Z</time>
      </trkpt>
      <trkpt lat="45.97108" lon="3.62979">
        <ele>728</ele>
        <time>2024-06-02T06:50:41Z</time>
      </trkpt>
      <trkpt lat="45.97114" lon="3.62969">
        <ele>726</ele>
        <time>2024-06-02T06:50:54Z</time>
      </trkpt>
      <trkpt lat="45.97118" lon="3.62955">
        <ele>725</ele>
        <time>2024-06-02T06:51:08Z</time>
      </trkpt>
      <trkpt lat="45.97126" lon="3.62947">
        <ele>723</ele>
        <time>2024-06-02T06:51:21Z</time>
      </trkpt>
      <trkpt lat="45.97132" lon="3.6292">
        <ele>720</ele>
        <time>2024-06-02T06:51:47Z</time>
      </trkpt>
      <trkpt lat="45.9714" lon="3.62911">
        <ele>718</ele>
        <time>2024-06-02T06:52:01Z</time>
      </trkpt>
      <trkpt lat="45.97145" lon="3.62898">
        <ele>717</ele>
        <time>2024-06-02T06:52:14Z</time>
      </trkpt>
      <trkpt lat="45.97147" lon="3.62884">
        <ele>715</ele>
        <time>2024-06-02T06:52:28Z</time>
      </trkpt>
      <trkpt lat="45.97141" lon="3.62874">
        <ele>716</ele>
        <time>2024-06-02T06:52:40Z</time>
      </trkpt>
      <trkpt lat="45.97139" lon="3.6286">
        <ele>715</ele>
        <time>2024-06-02T06:52:53Z</time>
      </trkpt>
      <trkpt lat="45.97142" lon="3.62848">
        <ele>714</ele>
        <time>2024-06-02T06:53:05Z</time>
      </trkpt>
      <trkpt lat="45.97149" lon="3.62839">
        <ele>712</ele>
        <time>2024-06-02T06:53:17Z</time>
      </trkpt>
      <trkpt lat="45.97159" lon="3.62841">
        <ele>711</ele>
        <time>2024-06-02T06:53:31Z</time>
      </trkpt>
      <trkpt lat="45.97187" lon="3.62833">
        <ele>710</ele>
        <time>2024-06-02T06:54:09Z</time>
      </trkpt>
      <trkpt lat="45.97197" lon="3.62827">
        <ele>711</ele>
        <time>2024-06-02T06:54:24Z</time>
      </trkpt>
      <trkpt lat="45.97216" lon="3.62828">
        <ele>711</ele>
        <time>2024-06-02T06:54:49Z</time>
      </trkpt>
      <trkpt lat="45.97244" lon="3.62846">
        <ele>709</ele>
        <time>2024-06-02T06:55:30Z</time>
      </trkpt>
      <trkpt lat="45.97263" lon="3.62849">
        <ele>710</ele>
        <time>2024-06-02T06:55:55Z</time>
      </trkpt>
      <trkpt lat="45.97271" lon="3.62853">
        <ele>709</ele>
        <time>2024-06-02T06:56:07Z</time>
      </trkpt>
      <trkpt lat="45.973" lon="3.62842">
        <ele>714</ele>
        <time>2024-06-02T06:56:47Z</time>
      </trkpt>
      <trkpt lat="45.97308" lon="3.62834">
        <ele>716</ele>
        <time>2024-06-02T06:57:00Z</time>
      </trkpt>
      <trkpt lat="45.97352" lon="3.62805">
        <ele>721</ele>
        <time>2024-06-02T06:58:04Z</time>
      </trkpt>
      <trkpt lat="45.9736" lon="3.62795">
        <ele>721</ele>
        <time>2024-06-02T06:58:18Z</time>
      </trkpt>
      <trkpt lat="45.97364" lon="3.62782">
        <ele>723</ele>
        <time>2024-06-02T06:58:32Z</time>
      </trkpt>
      <trkpt lat="45.97371" lon="3.62772">
        <ele>724</ele>
        <time>2024-06-02T06:58:45Z</time>
      </trkpt>
      <trkpt lat="45.97395" lon="3.62751">
        <ele>723</ele>
        <time>2024-06-02T06:59:22Z</time>
      </trkpt>
      <trkpt lat="45.97422" lon="3.62708">
        <ele>727</ele>
        <time>2024-06-02T07:00:16Z</time>
      </trkpt>
      <trkpt lat="45.97428" lon="3.62673">
        <ele>734</ele>
        <time>2024-06-02T07:00:49Z</time>
      </trkpt>
      <trkpt lat="45.9745" lon="3.62705">
        <ele>727</ele>
        <time>2024-06-02T07:01:31Z</time>
      </trkpt>
      <trkpt lat="45.97476" lon="3.62723">
        <ele>721</ele>
        <time>2024-06-02T07:02:10Z</time>
      </trkpt>
      <trkpt lat="45.97485" lon="3.62726">
        <ele>720</ele>
        <time>2024-06-02T07:02:22Z</time>
      </trkpt>
      <trkpt lat="45.97523" lon="3.62721">
        <ele>718</ele>
        <time>2024-06-02T07:03:13Z</time>
      </trkpt>
      <trkpt lat="45.97561" lon="3.62701">
        <ele>718</ele>
        <time>2024-06-02T07:04:07Z</time>
      </trkpt>
      <trkpt lat="45.97571" lon="3.62698">
        <ele>718</ele>
        <time>2024-06-02T07:04:21Z</time>
      </trkpt>
      <trkpt lat="45.97579" lon="3.62692">
        <ele>718</ele>
        <time>2024-06-02T07:04:33Z</time>
      </trkpt>
      <trkpt lat="45.97598" lon="3.6269">
        <ele>716</ele>
        <time>2024-06-02T07:04:58Z</time>
      </trkpt>
      <trkpt lat="45.97608" lon="3.62692">
        <ele>715</ele>
        <time>2024-06-02T07:05:11Z</time>
      </trkpt>
      <trkpt lat="45.9762" lon="3.62706">
        <ele>712</ele>
        <time>2024-06-02T07:05:32Z</time>
      </trkpt>
      <trkpt lat="45.9763" lon="3.62703">
        <ele>711</ele>
        <time>2024-06-02T07:05:46Z</time>
      </trkpt>
      <trkpt lat="45.9764" lon="3.62688">
        <ele>713</ele>
        <time>2024-06-02T07:06:05Z</time>
      </trkpt>
      <trkpt lat="45.97636" lon="3.62663">
        <ele>717</ele>
        <time>2024-06-02T07:06:29Z</time>
      </trkpt>
      <trkpt lat="45.97637" lon="3.6265">
        <ele>717</ele>
        <time>2024-06-02T07:06:41Z</time>
      </trkpt>
      <trkpt lat="45.97641" lon="3.62636">
        <ele>717</ele>
        <time>2024-06-02T07:06:55Z</time>
      </trkpt>
      <trkpt lat="45.97645" lon="3.62595">
        <ele>718</ele>
        <time>2024-06-02T07:07:33Z</time>
      </trkpt>
      <trkpt lat="45.97649" lon="3.62583">
        <ele>717</ele>
        <time>2024-06-02T07:07:46Z</time>
      </trkpt>
      <trkpt lat="45.97652" lon="3.62557">
        <ele>717</ele>
        <time>2024-06-02T07:08:10Z</time>
      </trkpt>
      <trkpt lat="45.97663" lon="3.62534">
        <ele>715</ele>
        <time>2024-06-02T07:08:36Z</time>
      </trkpt>
      <trkpt lat="45.97666" lon="3.62506">
        <ele>714</ele>
        <time>2024-06-02T07:09:02Z</time>
      </trkpt>
      <trkpt lat="45.97684" lon="3.62458">
        <ele>713</ele>
        <time>2024-06-02T07:09:53Z</time>
      </trkpt>
      <trkpt lat="45.97688" lon="3.62431">
        <ele>714</ele>
        <time>2024-06-02T07:10:18Z</time>
      </trkpt>
      <trkpt lat="45.97687" lon="3.62417">
        <ele>715</ele>
        <time>2024-06-02T07:10:32Z</time>
      </trkpt>
      <trkpt lat="45.97682" lon="3.62405">
        <ele>717</ele>
        <time>2024-06-02T07:10:44Z</time>
      </trkpt>
      <trkpt lat="45.97683" lon="3.62362">
        <ele>719</ele>
        <time>2024-06-02T07:11:24Z</time>
      </trkpt>
      <trkpt lat="45.97693" lon="3.62337">
        <ele>719</ele>
        <time>2024-06-02T07:11:51Z</time>
      </trkpt>
      <trkpt lat="45.97711" lon="3.62321">
        <ele>718</ele>
        <time>2024-06-02T07:12:19Z</time>
      </trkpt>
      <trkpt lat="45.9773" lon="3.62318">
        <ele>714</ele>
        <time>2024-06-02T07:12:45Z</time>
      </trkpt>
      <trkpt lat="45.97739" lon="3.6231">
        <ele>713</ele>
        <time>2024-06-02T07:12:59Z</time>
      </trkpt>
      <trkpt lat="45.97744" lon="3.623">
        <ele>714</ele>
        <time>2024-06-02T07:13:10Z</time>
      </trkpt>
      <trkpt lat="45.97759" lon="3.62282">
        <ele>714</ele>
        <time>2024-06-02T07:13:36Z</time>
      </trkpt>
      <trkpt lat="45.97769" lon="3.62282">
        <ele>712</ele>
        <time>2024-06-02T07:13:50Z</time>
      </trkpt>
      <trkpt lat="45.97786" lon="3.62247">
        <ele>715</ele>
        <time>2024-06-02T07:14:29Z</time>
      </trkpt>
      <trkpt lat="45.97806" lon="3.62246">
        <ele>713</ele>
        <time>2024-06-02T07:14:56Z</time>
      </trkpt>
      <trkpt lat="45.97814" lon="3.62239">
        <ele>713</ele>
        <time>2024-06-02T07:15:09Z</time>
      </trkpt>
      <trkpt lat="45.97821" lon="3.62212">
        <ele>717</ele>
        <time>2024-06-02T07:15:35Z</time>
      </trkpt>
      <trkpt lat="45.97832" lon="3.6219">
        <ele>719</ele>
        <time>2024-06-02T07:16:00Z</time>
      </trkpt>
      <trkpt lat="45.97839" lon="3.62181">
        <ele>721</ele>
        <time>2024-06-02T07:16:13Z</time>
      </trkpt>
      <trkpt lat="45.97856" lon="3.62168">
        <ele>723</ele>
        <time>2024-06-02T07:16:39Z</time>
      </trkpt>
      <trkpt lat="45.97874" lon="3.6216">
        <ele>724</ele>
        <time>2024-06-02T07:17:04Z</time>
      </trkpt>
      <trkpt lat="45.97895" lon="3.62158">
        <ele>724</ele>
        <time>2024-06-02T07:17:32Z</time>
      </trkpt>
      <trkpt lat="45.97901" lon="3.62148">
        <ele>724</ele>
        <time>2024-06-02T07:17:44Z</time>
      </trkpt>
      <trkpt lat="45.97921" lon="3.6214">
        <ele>724</ele>
        <time>2024-06-02T07:18:12Z</time>
      </trkpt>
      <trkpt lat="45.97919" lon="3.62133">
        <ele>725</ele>
        <time>2024-06-02T07:18:19Z</time>
      </trkpt>
      <trkpt lat="45.97925" lon="3.62119">
        <ele>725</ele>
        <time>2024-06-02T07:18:34Z</time>
      </trkpt>
      <trkpt lat="45.9794" lon="3.62132">
        <ele>724</ele>
        <time>2024-06-02T07:18:58Z</time>
      </trkpt>
      <trkpt lat="45.97977" lon="3.62118">
        <ele>723</ele>
        <time>2024-06-02T07:19:49Z</time>
      </trkpt>
      <trkpt lat="45.98002" lon="3.62097">
        <ele>723</ele>
        <time>2024-06-02T07:20:27Z</time>
      </trkpt>
      <trkpt lat="45.98024" lon="3.62067">
        <ele>721</ele>
        <time>2024-06-02T07:21:08Z</time>
      </trkpt>
      <trkpt lat="45.9803" lon="3.62056">
        <ele>720</ele>
        <time>2024-06-02T07:21:21Z</time>
      </trkpt>
      <trkpt lat="45.98025" lon="3.62035">
        <ele>718</ele>
        <time>2024-06-02T07:21:41Z</time>
      </trkpt>
      <trkpt lat="45.98042" lon="3.62037">
        <ele>718</ele>
        <time>2024-06-02T07:22:04Z</time>
      </trkpt>
      <trkpt lat="45.98061" lon="3.62031">
        <ele>716</ele>
        <time>2024-06-02T07:22:30Z</time>
      </trkpt>
      <trkpt lat="45.98079" lon="3.62019">
        <ele>715</ele>
        <time>2024-06-02T07:22:56Z</time>
      </trkpt>
      <trkpt lat="45.98096" lon="3.62003">
        <ele>712</ele>
        <time>2024-06-02T07:23:23Z</time>
      </trkpt>
      <trkpt lat="45.98115" lon="3.61974">
        <ele>710</ele>
        <time>2024-06-02T07:24:00Z</time>
      </trkpt>
      <trkpt lat="45.98126" lon="3.61952">
        <ele>708</ele>
        <time>2024-06-02T07:24:26Z</time>
      </trkpt>
      <trkpt lat="45.98141" lon="3.61916">
        <ele>706</ele>
        <time>2024-06-02T07:25:05Z</time>
      </trkpt>
      <trkpt lat="45.98148" lon="3.61891">
        <ele>703</ele>
        <time>2024-06-02T07:25:30Z</time>
      </trkpt>
      <trkpt lat="45.98154" lon="3.6188">
        <ele>702</ele>
        <time>2024-06-02T07:25:42Z</time>
      </trkpt>
      <trkpt lat="45.98168" lon="3.61861">
        <ele>700</ele>
        <time>2024-06-02T07:26:08Z</time>
      </trkpt>
      <trkpt lat="45.98184" lon="3.61845">
        <ele>699</ele>
        <time>2024-06-02T07:26:34Z</time>
      </trkpt>
      <trkpt lat="45.98247" lon="3.61806">
        <ele>693</ele>
        <time>2024-06-02T07:28:06Z</time>
      </trkpt>
      <trkpt lat="45.98265" lon="3.61802">
        <ele>691</ele>
        <time>2024-06-02T07:28:30Z</time>
      </trkpt>
      <trkpt lat="45.98275" lon="3.61803">
        <ele>690</ele>
        <time>2024-06-02T07:28:43Z</time>
      </trkpt>
      <trkpt lat="45.98313" lon="3.61799">
        <ele>687</ele>
        <time>2024-06-02T07:29:34Z</time>
      </trkpt>
      <trkpt lat="45.98342" lon="3.61792">
        <ele>684</ele>
        <time>2024-06-02T07:30:13Z</time>
      </trkpt>
      <trkpt lat="45.98361" lon="3.61785">
        <ele>683</ele>
        <time>2024-06-02T07:30:40Z</time>
      </trkpt>
      <trkpt lat="45.98378" lon="3.6177">
        <ele>681</ele>
        <time>2024-06-02T07:31:06Z</time>
      </trkpt>
      <trkpt lat="45.98379" lon="3.61747">
        <ele>679</ele>
        <time>2024-06-02T07:31:28Z</time>
      </trkpt>
      <trkpt lat="45.98393" lon="3.61751">
        <ele>679</ele>
        <time>2024-06-02T07:31:47Z</time>
      </trkpt>
      <trkpt lat="45.98401" lon="3.61742">
        <ele>678</ele>
        <time>2024-06-02T07:32:00Z</time>
      </trkpt>
      <trkpt lat="45.98416" lon="3.61693">
        <ele>674</ele>
        <time>2024-06-02T07:32:50Z</time>
      </trkpt>
      <trkpt lat="45.98422" lon="3.61682">
        <ele>673</ele>
        <time>2024-06-02T07:33:03Z</time>
      </trkpt>
      <trkpt lat="45.98436" lon="3.61642">
        <ele>668</ele>
        <time>2024-06-02T07:33:44Z</time>
      </trkpt>
      <trkpt lat="45.98446" lon="3.61589">
        <ele>662</ele>
        <time>2024-06-02T07:34:35Z</time>
      </trkpt>
      <trkpt lat="45.98458" lon="3.61567">
        <ele>659</ele>
        <time>2024-06-02T07:35:01Z</time>
      </trkpt>
      <trkpt lat="45.98494" lon="3.61519">
        <ele>653</ele>
        <time>2024-06-02T07:36:07Z</time>
      </trkpt>
      <trkpt lat="45.98503" lon="3.61514">
        <ele>653</ele>
        <time>2024-06-02T07:36:20Z</time>
      </trkpt>
      <trkpt lat="45.98515" lon="3.61492">
        <ele>650</ele>
        <time>2024-06-02T07:36:45Z</time>
      </trkpt>
      <trkpt lat="45.98531" lon="3.61474">
        <ele>647</ele>
        <time>2024-06-02T07:37:13Z</time>
      </trkpt>
      <trkpt lat="45.98572" lon="3.61436">
        <ele>640</ele>
        <time>2024-06-02T07:38:18Z</time>
      </trkpt>
      <trkpt lat="45.98632" lon="3.61389">
        <ele>630</ele>
        <time>2024-06-02T07:39:49Z</time>
      </trkpt>
      <trkpt lat="45.98724" lon="3.61308">
        <ele>616</ele>
        <time>2024-06-02T07:42:13Z</time>
      </trkpt>
      <trkpt lat="45.98737" lon="3.61287">
        <ele>613</ele>
        <time>2024-06-02T07:42:39Z</time>
      </trkpt>
      <trkpt lat="45.98768" lon="3.61216">
        <ele>603</ele>
        <time>2024-06-02T07:43:57Z</time>
      </trkpt>
      <trkpt lat="45.98788" lon="3.61187">
        <ele>599</ele>
        <time>2024-06-02T07:44:34Z</time>
      </trkpt>
      <trkpt lat="45.98797" lon="3.6118">
        <ele>598</ele>
        <time>2024-06-02T07:44:48Z</time>
      </trkpt>
      <trkpt lat="45.98819" lon="3.61155">
        <ele>594</ele>
        <time>2024-06-02T07:45:26Z</time>
      </trkpt>
      <trkpt lat="45.98825" lon="3.61127">
        <ele>591</ele>
        <time>2024-06-02T07:45:53Z</time>
      </trkpt>
      <trkpt lat="45.98831" lon="3.61174">
        <ele>594</ele>
        <time>2024-06-02T07:46:37Z</time>
      </trkpt>
      <trkpt lat="45.98826" lon="3.612">
        <ele>596</ele>
        <time>2024-06-02T07:47:02Z</time>
      </trkpt>
      <trkpt lat="45.98836" lon="3.61224">
        <ele>596</ele>
        <time>2024-06-02T07:47:28Z</time>
      </trkpt>
      <trkpt lat="45.98846" lon="3.61231">
        <ele>595</ele>
        <time>2024-06-02T07:47:43Z</time>
      </trkpt>
      <trkpt lat="45.9886" lon="3.61248">
        <ele>595</ele>
        <time>2024-06-02T07:48:07Z</time>
      </trkpt>
      <trkpt lat="45.98906" lon="3.61266">
        <ele>593</ele>
        <time>2024-06-02T07:49:11Z</time>
      </trkpt>
      <trkpt lat="45.98916" lon="3.61263">
        <ele>592</ele>
        <time>2024-06-02T07:49:24Z</time>
      </trkpt>
      <trkpt lat="45.98925" lon="3.61264">
        <ele>591</ele>
        <time>2024-06-02T07:49:37Z</time>
      </trkpt>
      <trkpt lat="45.98953" lon="3.61278">
        <ele>589</ele>
        <time>2024-06-02T07:50:16Z</time>
      </trkpt>
      <trkpt lat="45.98976" lon="3.61302">
        <ele>589</ele>
        <time>2024-06-02T07:50:54Z</time>
      </trkpt>
      <trkpt lat="45.98994" lon="3.61315">
        <ele>590</ele>
        <time>2024-06-02T07:51:21Z</time>
      </trkpt>
      <trkpt lat="45.99043" lon="3.61406">
        <ele>598</ele>
        <time>2024-06-02T07:53:08Z</time>
      </trkpt>
      <trkpt lat="45.99062" lon="3.61436">
        <ele>600</ele>
        <time>2024-06-02T07:53:45Z</time>
      </trkpt>
      <trkpt lat="45.99066" lon="3.61449">
        <ele>602</ele>
        <time>2024-06-02T07:53:58Z</time>
      </trkpt>
      <trkpt lat="45.99074" lon="3.61459">
        <ele>603</ele>
        <time>2024-06-02T07:54:13Z</time>
      </trkpt>
      <trkpt lat="45.99096" lon="3.61505">
        <ele>607</ele>
        <time>2024-06-02T07:55:04Z</time>
      </trkpt>
      <trkpt lat="45.99115" lon="3.61537">
        <ele>609</ele>
        <time>2024-06-02T07:55:43Z</time>
      </trkpt>
      <trkpt lat="45.9913" lon="3.61555">
        <ele>609</ele>
        <time>2024-06-02T07:56:09Z</time>
      </trkpt>
      <trkpt lat="45.99142" lon="3.61579">
        <ele>611</ele>
        <time>2024-06-02T07:56:37Z</time>
      </trkpt>
      <trkpt lat="45.9915" lon="3.61587">
        <ele>610</ele>
        <time>2024-06-02T07:56:50Z</time>
      </trkpt>
      <trkpt lat="45.99159" lon="3.61611">
        <ele>609</ele>
        <time>2024-06-02T07:57:15Z</time>
      </trkpt>
      <trkpt lat="45.99168" lon="3.61622">
        <ele>607</ele>
        <time>2024-06-02T07:57:31Z</time>
      </trkpt>
      <trkpt lat="45.9917" lon="3.61675">
        <ele>608</ele>
        <time>2024-06-02T07:58:20Z</time>
      </trkpt>
      <trkpt lat="45.99182" lon="3.61645">
        <ele>604</ele>
        <time>2024-06-02T07:58:52Z</time>
      </trkpt>
      <trkpt lat="45.99175" lon="3.61595">
        <ele>604</ele>
        <time>2024-06-02T07:59:39Z</time>
      </trkpt>
      <trkpt lat="45.9917" lon="3.61575">
        <ele>604</ele>
        <time>2024-06-02T07:59:59Z</time>
      </trkpt>
      <trkpt lat="45.99178" lon="3.6155">
        <ele>598</ele>
        <time>2024-06-02T08:00:25Z</time>
      </trkpt>
      <trkpt lat="45.99192" lon="3.61555">
        <ele>595</ele>
        <time>2024-06-02T08:00:44Z</time>
      </trkpt>
      <trkpt lat="45.99207" lon="3.61588">
        <ele>594</ele>
        <time>2024-06-02T08:01:21Z</time>
      </trkpt>
      <trkpt lat="45.99224" lon="3.61605">
        <ele>588</ele>
        <time>2024-06-02T08:01:48Z</time>
      </trkpt>
      <trkpt lat="45.99224" lon="3.61619">
        <ele>589</ele>
        <time>2024-06-02T08:02:01Z</time>
      </trkpt>
      <trkpt lat="45.99236" lon="3.61641">
        <ele>585</ele>
        <time>2024-06-02T08:02:27Z</time>
      </trkpt>
      <trkpt lat="45.99239" lon="3.61655">
        <ele>584</ele>
        <time>2024-06-02T08:02:41Z</time>
      </trkpt>
      <trkpt lat="45.9925" lon="3.61678">
        <ele>579</ele>
        <time>2024-06-02T08:03:07Z</time>
      </trkpt>
      <trkpt lat="45.99252" lon="3.61692">
        <ele>577</ele>
        <time>2024-06-02T08:03:20Z</time>
      </trkpt>
      <trkpt lat="45.99275" lon="3.61753">
        <ele>565</ele>
        <time>2024-06-02T08:04:24Z</time>
      </trkpt>
      <trkpt lat="45.9929" lon="3.61768">
        <ele>560</ele>
        <time>2024-06-02T08:04:49Z</time>
      </trkpt>
      <trkpt lat="45.993" lon="3.61767">
        <ele>558</ele>
        <time>2024-06-02T08:05:02Z</time>
      </trkpt>
      <trkpt lat="45.99319" lon="3.61775">
        <ele>553</ele>
        <time>2024-06-02T08:05:28Z</time>
      </trkpt>
      <trkpt lat="45.99332" lon="3.61794">
        <ele>552</ele>
        <time>2024-06-02T08:05:53Z</time>
      </trkpt>
      <trkpt lat="45.99345" lon="3.61765">
        <ele>553</ele>
        <time>2024-06-02T08:06:25Z</time>
      </trkpt>
      <trkpt lat="45.99326" lon="3.61717">
        <ele>552</ele>
        <time>2024-06-02T08:07:16Z</time>
      </trkpt>
      <trkpt lat="45.99321" lon="3.61685">
        <ele>554</ele>
        <time>2024-06-02T08:07:47Z</time>
      </trkpt>
      <trkpt lat="45.9931" lon="3.61662">
        <ele>558</ele>
        <time>2024-06-02T08:08:13Z</time>
      </trkpt>
      <trkpt lat="45.99313" lon="3.61621">
        <ele>556</ele>
        <time>2024-06-02T08:08:51Z</time>
      </trkpt>
      <trkpt lat="45.99328" lon="3.61584">
        <ele>548</ele>
        <time>2024-06-02T08:09:30Z</time>
      </trkpt>
      <trkpt lat="45.99344" lon="3.61568">
        <ele>547</ele>
        <time>2024-06-02T08:09:56Z</time>
      </trkpt>
      <trkpt lat="45.9937" lon="3.61525">
        <ele>545</ele>
        <time>2024-06-02T08:10:49Z</time>
      </trkpt>
      <trkpt lat="45.99388" lon="3.61518">
        <ele>543</ele>
        <time>2024-06-02T08:11:14Z</time>
      </trkpt>
      <trkpt lat="45.99396" lon="3.61526">
        <ele>544</ele>
        <time>2024-06-02T08:11:27Z</time>
      </trkpt>
      <trkpt lat="45.99418" lon="3.61479">
        <ele>543</ele>
        <time>2024-06-02T08:12:20Z</time>
      </trkpt>
      <trkpt lat="45.99426" lon="3.6147">
        <ele>544</ele>
        <time>2024-06-02T08:12:33Z</time>
      </trkpt>
      <trkpt lat="45.99424" lon="3.61484">
        <ele>542</ele>
        <time>2024-06-02T08:12:47Z</time>
      </trkpt>
      <trkpt lat="45.99427" lon="3.61496">
        <ele>540</ele>
        <time>2024-06-02T08:12:58Z</time>
      </trkpt>
      <trkpt lat="45.99419" lon="3.61488">
        <ele>541</ele>
        <time>2024-06-02T08:13:11Z</time>
      </trkpt>
      <trkpt lat="45.99417" lon="3.61474">
        <ele>543</ele>
        <time>2024-06-02T08:13:25Z</time>
      </trkpt>
      <trkpt lat="45.99397" lon="3.61522">
        <ele>543</ele>
        <time>2024-06-02T08:14:17Z</time>
      </trkpt>
      <trkpt lat="45.99403" lon="3.61533">
        <ele>544</ele>
        <time>2024-06-02T08:14:29Z</time>
      </trkpt>
      <trkpt lat="45.99425" lon="3.61538">
        <ele>546</ele>
        <time>2024-06-02T08:14:59Z</time>
      </trkpt>
      <trkpt lat="45.9944" lon="3.61526">
        <ele>545</ele>
        <time>2024-06-02T08:15:22Z</time>
      </trkpt>
      <trkpt lat="45.99448" lon="3.61491">
        <ele>541</ele>
        <time>2024-06-02T08:15:56Z</time>
      </trkpt>
      <trkpt lat="45.99456" lon="3.61485">
        <ele>542</ele>
        <time>2024-06-02T08:16:08Z</time>
      </trkpt>
      <trkpt lat="45.99466" lon="3.61485">
        <ele>542</ele>
        <time>2024-06-02T08:16:22Z</time>
      </trkpt>
      <trkpt lat="45.99503" lon="3.61499">
        <ele>543</ele>
        <time>2024-06-02T08:17:13Z</time>
      </trkpt>
      <trkpt lat="45.99542" lon="3.61506">
        <ele>551</ele>
        <time>2024-06-02T08:18:05Z</time>
      </trkpt>
      <trkpt lat="45.99551" lon="3.61511">
        <ele>554</ele>
        <time>2024-06-02T08:18:18Z</time>
      </trkpt>
      <trkpt lat="45.9957" lon="3.61513">
        <ele>557</ele>
        <time>2024-06-02T08:18:43Z</time>
      </trkpt>
      <trkpt lat="45.99597" lon="3.61521">
        <ele>563</ele>
        <time>2024-06-02T08:19:20Z</time>
      </trkpt>
      <trkpt lat="45.99622" lon="3.6154">
        <ele>570</ele>
        <time>2024-06-02T08:19:58Z</time>
      </trkpt>
      <trkpt lat="45.99631" lon="3.61544">
        <ele>572</ele>
        <time>2024-06-02T08:20:11Z</time>
      </trkpt>
      <trkpt lat="45.99648" lon="3.61559">
        <ele>577</ele>
        <time>2024-06-02T08:20:37Z</time>
      </trkpt>
      <trkpt lat="45.99661" lon="3.6158">
        <ele>582</ele>
        <time>2024-06-02T08:21:03Z</time>
      </trkpt>
      <trkpt lat="45.99667" lon="3.61606">
        <ele>583</ele>
        <time>2024-06-02T08:21:29Z</time>
      </trkpt>
      <trkpt lat="45.99664" lon="3.61647">
        <ele>583</ele>
        <time>2024-06-02T08:22:07Z</time>
      </trkpt>
      <trkpt lat="45.99613" lon="3.61752">
        <ele>594</ele>
        <time>2024-06-02T08:24:06Z</time>
      </trkpt>
      <trkpt lat="45.99592" lon="3.61778">
        <ele>595</ele>
        <time>2024-06-02T08:24:43Z</time>
      </trkpt>
      <trkpt lat="45.99583" lon="3.61786">
        <ele>595</ele>
        <time>2024-06-02T08:24:57Z</time>
      </trkpt>
      <trkpt lat="45.99539" lon="3.61814">
        <ele>594</ele>
        <time>2024-06-02T08:26:01Z</time>
      </trkpt>
      <trkpt lat="45.99516" lon="3.61841">
        <ele>595</ele>
        <time>2024-06-02T08:26:40Z</time>
      </trkpt>
      <trkpt lat="45.99504" lon="3.61862">
        <ele>597</ele>
        <time>2024-06-02T08:27:06Z</time>
      </trkpt>
      <trkpt lat="45.99478" lon="3.61924">
        <ele>598</ele>
        <time>2024-06-02T08:28:13Z</time>
      </trkpt>
      <trkpt lat="45.99466" lon="3.61977">
        <ele>601</ele>
        <time>2024-06-02T08:29:04Z</time>
      </trkpt>
      <trkpt lat="45.99461" lon="3.62034">
        <ele>607</ele>
        <time>2024-06-02T08:29:58Z</time>
      </trkpt>
      <trkpt lat="45.99461" lon="3.62062">
        <ele>610</ele>
        <time>2024-06-02T08:30:24Z</time>
      </trkpt>
      <trkpt lat="45.99469" lon="3.62115">
        <ele>617</ele>
        <time>2024-06-02T08:31:14Z</time>
      </trkpt>
      <trkpt lat="45.99476" lon="3.62127">
        <ele>619</ele>
        <time>2024-06-02T08:31:29Z</time>
      </trkpt>
      <trkpt lat="45.99498" lon="3.6219">
        <ele>629</ele>
        <time>2024-06-02T08:32:34Z</time>
      </trkpt>
      <trkpt lat="45.99511" lon="3.62212">
        <ele>632</ele>
        <time>2024-06-02T08:33:01Z</time>
      </trkpt>
      <trkpt lat="45.99515" lon="3.62224">
        <ele>634</ele>
        <time>2024-06-02T08:33:13Z</time>
      </trkpt>
      <trkpt lat="45.99509" lon="3.62249">
        <ele>637</ele>
        <time>2024-06-02T08:33:38Z</time>
      </trkpt>
      <trkpt lat="45.9951" lon="3.62263">
        <ele>639</ele>
        <time>2024-06-02T08:33:51Z</time>
      </trkpt>
      <trkpt lat="45.99503" lon="3.62273">
        <ele>641</ele>
        <time>2024-06-02T08:34:04Z</time>
      </trkpt>
      <trkpt lat="45.99482" lon="3.62318">
        <ele>645</ele>
        <time>2024-06-02T08:34:54Z</time>
      </trkpt>
      <trkpt lat="45.99463" lon="3.62349">
        <ele>649</ele>
        <time>2024-06-02T08:35:32Z</time>
      </trkpt>
      <trkpt lat="45.99407" lon="3.62424">
        <ele>660</ele>
        <time>2024-06-02T08:37:14Z</time>
      </trkpt>
      <trkpt lat="45.99395" lon="3.62445">
        <ele>663</ele>
        <time>2024-06-02T08:37:40Z</time>
      </trkpt>
      <trkpt lat="45.99364" lon="3.62513">
        <ele>672</ele>
        <time>2024-06-02T08:38:55Z</time>
      </trkpt>
      <trkpt lat="45.99352" lon="3.62565">
        <ele>681</ele>
        <time>2024-06-02T08:39:46Z</time>
      </trkpt>
      <trkpt lat="45.99352" lon="3.62592">
        <ele>685</ele>
        <time>2024-06-02T08:40:11Z</time>
      </trkpt>
      <trkpt lat="45.9936" lon="3.6263">
        <ele>689</ele>
        <time>2024-06-02T08:40:48Z</time>
      </trkpt>
      <trkpt lat="45.99364" lon="3.62644">
        <ele>690</ele>
        <time>2024-06-02T08:41:02Z</time>
      </trkpt>
      <trkpt lat="45.99381" lon="3.62677">
        <ele>693</ele>
        <time>2024-06-02T08:41:40Z</time>
      </trkpt>
      <trkpt lat="45.99397" lon="3.62693">
        <ele>695</ele>
        <time>2024-06-02T08:42:06Z</time>
      </trkpt>
      <trkpt lat="45.99414" lon="3.62705">
        <ele>696</ele>
        <time>2024-06-02T08:42:31Z</time>
      </trkpt>
      <trkpt lat="45.99439" lon="3.62715">
        <ele>699</ele>
        <time>2024-06-02T08:43:06Z</time>
      </trkpt>
      <trkpt lat="45.99448" lon="3.62732">
        <ele>701</ele>
        <time>2024-06-02T08:43:25Z</time>
      </trkpt>
      <trkpt lat="45.99456" lon="3.62738">
        <ele>702</ele>
        <time>2024-06-02T08:43:38Z</time>
      </trkpt>
      <trkpt lat="45.99469" lon="3.62758">
        <ele>704</ele>
        <time>2024-06-02T08:44:03Z</time>
      </trkpt>
      <trkpt lat="45.99494" lon="3.62804">
        <ele>708</ele>
        <time>2024-06-02T08:44:57Z</time>
      </trkpt>
      <trkpt lat="45.99508" lon="3.62825">
        <ele>709</ele>
        <time>2024-06-02T08:45:24Z</time>
      </trkpt>
      <trkpt lat="45.99532" lon="3.62853">
        <ele>711</ele>
        <time>2024-06-02T08:46:05Z</time>
      </trkpt>
      <trkpt lat="45.99563" lon="3.62896">
        <ele>713</ele>
        <time>2024-06-02T08:47:03Z</time>
      </trkpt>
      <trkpt lat="45.99548" lon="3.629">
        <ele>712</ele>
        <time>2024-06-02T08:47:23Z</time>
      </trkpt>
      <trkpt lat="45.99481" lon="3.62959">
        <ele>713</ele>
        <time>2024-06-02T08:49:08Z</time>
      </trkpt>
      <trkpt lat="45.99417" lon="3.63021">
        <ele>725</ele>
        <time>2024-06-02T08:50:51Z</time>
      </trkpt>
      <trkpt lat="45.99404" lon="3.6304">
        <ele>730</ele>
        <time>2024-06-02T08:51:16Z</time>
      </trkpt>
      <trkpt lat="45.99398" lon="3.63094">
        <ele>740</ele>
        <time>2024-06-02T08:52:06Z</time>
      </trkpt>
      <trkpt lat="45.99401" lon="3.63122">
        <ele>743</ele>
        <time>2024-06-02T08:52:33Z</time>
      </trkpt>
      <trkpt lat="45.99393" lon="3.63151">
        <ele>748</ele>
        <time>2024-06-02T08:53:01Z</time>
      </trkpt>
      <trkpt lat="45.99387" lon="3.63164">
        <ele>750</ele>
        <time>2024-06-02T08:53:16Z</time>
      </trkpt>
      <trkpt lat="45.99381" lon="3.6319">
        <ele>750</ele>
        <time>2024-06-02T08:53:41Z</time>
      </trkpt>
      <trkpt lat="45.99363" lon="3.63198">
        <ele>751</ele>
        <time>2024-06-02T08:54:06Z</time>
      </trkpt>
      <trkpt lat="45.99357" lon="3.63209">
        <ele>752</ele>
        <time>2024-06-02T08:54:19Z</time>
      </trkpt>
      <trkpt lat="45.99349" lon="3.63215">
        <ele>752</ele>
        <time>2024-06-02T08:54:31Z</time>
      </trkpt>
      <trkpt lat="45.99342" lon="3.63225">
        <ele>753</ele>
        <time>2024-06-02T08:54:45Z</time>
      </trkpt>
      <trkpt lat="45.99323" lon="3.63231">
        <ele>756</ele>
        <time>2024-06-02T08:55:11Z</time>
      </trkpt>
      <trkpt lat="45.9932" lon="3.63245">
        <ele>757</ele>
        <time>2024-06-02T08:55:24Z</time>
      </trkpt>
      <trkpt lat="45.99309" lon="3.63268">
        <ele>759</ele>
        <time>2024-06-02T08:55:50Z</time>
      </trkpt>
      <trkpt lat="45.99272" lon="3.63316">
        <ele>768</ele>
        <time>2024-06-02T08:56:57Z</time>
      </trkpt>
      <trkpt lat="45.99254" lon="3.63349">
        <ele>774</ele>
        <time>2024-06-02T08:57:35Z</time>
      </trkpt>
      <trkpt lat="45.99236" lon="3.63358">
        <ele>776</ele>
        <time>2024-06-02T08:58:01Z</time>
      </trkpt>
      <trkpt lat="45.99223" lon="3.63377">
        <ele>776</ele>
        <time>2024-06-02T08:58:26Z</time>
      </trkpt>
      <trkpt lat="45.99214" lon="3.63382">
        <ele>776</ele>
        <time>2024-06-02T08:58:38Z</time>
      </trkpt>
      <trkpt lat="45.99206" lon="3.63391">
        <ele>776</ele>
        <time>2024-06-02T08:58:52Z</time>
      </trkpt>
      <trkpt lat="45.99201" lon="3.63402">
        <ele>776</ele>
        <time>2024-06-02T08:59:04Z</time>
      </trkpt>
      <trkpt lat="45.99192" lon="3.63408">
        <ele>777</ele>
        <time>2024-06-02T08:59:17Z</time>
      </trkpt>
      <trkpt lat="45.99178" lon="3.63426">
        <ele>776</ele>
        <time>2024-06-02T08:59:42Z</time>
      </trkpt>
      <trkpt lat="45.99168" lon="3.63432">
        <ele>776</ele>
        <time>2024-06-02T08:59:57Z</time>
      </trkpt>
      <trkpt lat="45.99143" lon="3.63455">
        <ele>777</ele>
        <time>2024-06-02T09:00:37Z</time>
      </trkpt>
      <trkpt lat="45.99138" lon="3.63466">
        <ele>777</ele>
        <time>2024-06-02T09:00:49Z</time>
      </trkpt>
      <trkpt lat="45.9913" lon="3.63475">
        <ele>778</ele>
        <time>2024-06-02T09:01:02Z</time>
      </trkpt>
      <trkpt lat="45.99121" lon="3.6348">
        <ele>779</ele>
        <time>2024-06-02T09:01:15Z</time>
      </trkpt>
      <trkpt lat="45.99098" lon="3.63506">
        <ele>782</ele>
        <time>2024-06-02T09:01:54Z</time>
      </trkpt>
      <trkpt lat="45.99087" lon="3.63508">
        <ele>784</ele>
        <time>2024-06-02T09:02:09Z</time>
      </trkpt>
      <trkpt lat="45.99081" lon="3.63518">
        <ele>784</ele>
        <time>2024-06-02T09:02:21Z</time>
      </trkpt>
      <trkpt lat="45.99072" lon="3.63543">
        <ele>785</ele>
        <time>2024-06-02T09:02:47Z</time>
      </trkpt>
      <trkpt lat="45.99064" lon="3.63552">
        <ele>785</ele>
        <time>2024-06-02T09:03:01Z</time>
      </trkpt>
      <trkpt lat="45.99059" lon="3.63541">
        <ele>785</ele>
        <time>2024-06-02T09:03:13Z</time>
      </trkpt>
      <trkpt lat="45.99051" lon="3.63552">
        <ele>785</ele>
        <time>2024-06-02T09:03:28Z</time>
      </trkpt>
      <trkpt lat="45.99041" lon="3.63556">
        <ele>785</ele>
        <time>2024-06-02T09:03:42Z</time>
      </trkpt>
      <trkpt lat="45.99031" lon="3.63558">
        <ele>786</ele>
        <time>2024-06-02T09:03:55Z</time>
      </trkpt>
      <trkpt lat="45.99012" lon="3.63555">
        <ele>786</ele>
        <time>2024-06-02T09:04:21Z</time>
      </trkpt>
      <trkpt lat="45.99003" lon="3.6356">
        <ele>786</ele>
        <time>2024-06-02T09:04:34Z</time>
      </trkpt>
      <trkpt lat="45.98993" lon="3.63561">
        <ele>785</ele>
        <time>2024-06-02T09:04:47Z</time>
      </trkpt>
      <trkpt lat="45.98984" lon="3.63565">
        <ele>784</ele>
        <time>2024-06-02T09:04:59Z</time>
      </trkpt>
      <trkpt lat="45.9897" lon="3.63582">
        <ele>783</ele>
        <time>2024-06-02T09:05:24Z</time>
      </trkpt>
      <trkpt lat="45.98961" lon="3.63587">
        <ele>782</ele>
        <time>2024-06-02T09:05:37Z</time>
      </trkpt>
      <trkpt lat="45.98956" lon="3.63599">
        <ele>782</ele>
        <time>2024-06-02T09:05:50Z</time>
      </trkpt>
      <trkpt lat="45.98939" lon="3.63612">
        <ele>780</ele>
        <time>2024-06-02T09:06:15Z</time>
      </trkpt>
      <trkpt lat="45.98931" lon="3.63626">
        <ele>779</ele>
        <time>2024-06-02T09:06:32Z</time>
      </trkpt>
      <trkpt lat="45.98904" lon="3.63644">
        <ele>776</ele>
        <time>2024-06-02T09:07:12Z</time>
      </trkpt>
      <trkpt lat="45.98875" lon="3.63651">
        <ele>770</ele>
        <time>2024-06-02T09:07:51Z</time>
      </trkpt>
      <trkpt lat="45.98815" lon="3.63644">
        <ele>759</ele>
        <time>2024-06-02T09:09:12Z</time>
      </trkpt>
      <trkpt lat="45.98786" lon="3.63647">
        <ele>755</ele>
        <time>2024-06-02T09:09:50Z</time>
      </trkpt>
      <trkpt lat="45.98759" lon="3.63661">
        <ele>751</ele>
        <time>2024-06-02T09:10:29Z</time>
      </trkpt>
      <trkpt lat="45.98706" lon="3.63698">
        <ele>749</ele>
        <time>2024-06-02T09:11:47Z</time>
      </trkpt>
      <trkpt lat="45.98669" lon="3.63713">
        <ele>748</ele>
        <time>2024-06-02T09:12:39Z</time>
      </trkpt>
      <trkpt lat="45.98659" lon="3.63714">
        <ele>748</ele>
        <time>2024-06-02T09:12:52Z</time>
      </trkpt>
      <trkpt lat="45.98623" lon="3.63696">
        <ele>750</ele>
        <time>2024-06-02T09:13:43Z</time>
      </trkpt>
      <trkpt lat="45.98593" lon="3.63693">
        <ele>751</ele>
        <time>2024-06-02T09:14:23Z</time>
      </trkpt>
      <trkpt lat="45.98545" lon="3.63703">
        <ele>753</ele>
        <time>2024-06-02T09:15:28Z</time>
      </trkpt>
      <trkpt lat="45.98506" lon="3.63719">
        <ele>754</ele>
        <time>2024-06-02T09:16:22Z</time>
      </trkpt>
      <trkpt lat="45.98489" lon="3.63729">
        <ele>752</ele>
        <time>2024-06-02T09:16:46Z</time>
      </trkpt>
      <trkpt lat="45.9846" lon="3.63736">
        <ele>750</ele>
        <time>2024-06-02T09:17:25Z</time>
      </trkpt>
      <trkpt lat="45.98441" lon="3.63734">
        <ele>748</ele>
        <time>2024-06-02T09:17:51Z</time>
      </trkpt>
      <trkpt lat="45.98405" lon="3.63719">
        <ele>745</ele>
        <time>2024-06-02T09:18:41Z</time>
      </trkpt>
      <trkpt lat="45.98395" lon="3.63717">
        <ele>744</ele>
        <time>2024-06-02T09:18:54Z</time>
      </trkpt>
      <trkpt lat="45.98366" lon="3.63718">
        <ele>740</ele>
        <time>2024-06-02T09:19:33Z</time>
      </trkpt>
      <trkpt lat="45.98357" lon="3.63712">
        <ele>739</ele>
        <time>2024-06-02T09:19:46Z</time>
      </trkpt>
      <trkpt lat="45.98347" lon="3.63709">
        <ele>738</ele>
        <time>2024-06-02T09:20:00Z</time>
      </trkpt>
      <trkpt lat="45.98338" lon="3.63709">
        <ele>737</ele>
        <time>2024-06-02T09:20:12Z</time>
      </trkpt>
      <trkpt lat="45.98306" lon="3.63718">
        <ele>733</ele>
        <time>2024-06-02T09:20:55Z</time>
      </trkpt>
      <trkpt lat="45.9832" lon="3.63732">
        <ele>734</ele>
        <time>2024-06-02T09:21:18Z</time>
      </trkpt>
      <trkpt lat="45.98332" lon="3.63751">
        <ele>734</ele>
        <time>2024-06-02T09:21:42Z</time>
      </trkpt>
      <trkpt lat="45.98334" lon="3.63759">
        <ele>734</ele>
        <time>2024-06-02T09:21:50Z</time>
      </trkpt>
      <trkpt lat="45.98338" lon="3.63786">
        <ele>733</ele>
        <time>2024-06-02T09:22:16Z</time>
      </trkpt>
      <trkpt lat="45.98337" lon="3.638">
        <ele>732</ele>
        <time>2024-06-02T09:22:29Z</time>
      </trkpt>
      <trkpt lat="45.98328" lon="3.6384">
        <ele>730</ele>
        <time>2024-06-02T09:23:08Z</time>
      </trkpt>
      <trkpt lat="45.98327" lon="3.63854">
        <ele>729</ele>
        <time>2024-06-02T09:23:21Z</time>
      </trkpt>
      <trkpt lat="45.98335" lon="3.6388">
        <ele>729</ele>
        <time>2024-06-02T09:23:47Z</time>
      </trkpt>
      <trkpt lat="45.98373" lon="3.63944">
        <ele>727</ele>
        <time>2024-06-02T09:25:05Z</time>
      </trkpt>
      <trkpt lat="45.9834" lon="3.63906">
        <ele>728</ele>
        <time>2024-06-02T09:26:01Z</time>
      </trkpt>
    </trkseg>
  </trk>
</gpx>